sensor_id;sensor_type;location;lat;lon;timestamp;pressure;altitude;pressure_sealevel;temperature;humidity
64336;BME280;50672;53.362;-6.240;2022-12-10T19:46:25;101034.56;;;0.75;92.87
64336;BME280;50672;53.362;-6.240;2022-12-10T19:48:53;101035.44;;;0.76;92.79
64336;BME280;50672;53.362;-6.240;2022-12-10T19:51:20;101037.78;;;0.80;92.67
64336;BME280;50672;53.362;-6.240;2022-12-10T19:53:49;101032.22;;;0.83;92.81
64336;BME280;50672;53.362;-6.240;2022-12-10T19:56:28;101034.78;;;0.85;92.85
64336;BME280;50672;53.362;-6.240;2022-12-10T19:58:57;101038.97;;;0.89;92.87
64336;BME280;50672;53.362;-6.240;2022-12-10T20:01:25;101037.06;;;0.91;92.79
64336;BME280;50672;53.362;-6.240;2022-12-10T20:03:53;101043.25;;;0.92;92.75
64336;BME280;50672;53.362;-6.240;2022-12-10T20:06:23;101039.50;;;0.94;92.70
64336;BME280;50672;53.362;-6.240;2022-12-10T20:08:58;101041.25;;;0.95;92.61
64336;BME280;50672;53.362;-6.240;2022-12-10T20:11:25;101041.25;;;0.95;92.64
64336;BME280;50672;53.362;-6.240;2022-12-10T20:13:53;101042.09;;;0.96;92.75
64336;BME280;50672;53.362;-6.240;2022-12-10T20:16:22;101039.50;;;0.94;92.66
64336;BME280;50672;53.362;-6.240;2022-12-10T20:18:50;101043.81;;;0.97;92.77
64336;BME280;50672;53.362;-6.240;2022-12-10T20:21:20;101043.69;;;0.98;92.79
64336;BME280;50672;53.362;-6.240;2022-12-10T20:23:48;101034.81;;;0.98;92.75
64336;BME280;50672;53.362;-6.240;2022-12-10T20:26:34;101028.34;;;1.00;92.61
64336;BME280;50672;53.362;-6.240;2022-12-10T20:29:02;101038.13;;;1.01;92.56
64336;BME280;50672;53.362;-6.240;2022-12-10T20:31:29;101042.53;;;1.02;92.67
64336;BME280;50672;53.362;-6.240;2022-12-10T20:33:56;101033.53;;;1.04;92.61
64336;BME280;50672;53.362;-6.240;2022-12-10T20:36:25;101033.41;;;1.05;92.65
64336;BME280;50672;53.362;-6.240;2022-12-10T20:38:53;101033.53;;;1.04;92.58
64336;BME280;50672;53.362;-6.240;2022-12-10T20:41:23;101036.31;;;1.02;92.52
64336;BME280;50672;53.362;-6.240;2022-12-10T20:43:50;101030.06;;;1.01;92.56
64336;BME280;50672;53.362;-6.240;2022-12-10T20:46:24;101031.16;;;0.99;92.49
64336;BME280;50672;53.362;-6.240;2022-12-10T20:48:53;101027.63;;;0.98;92.60
64336;BME280;50672;53.362;-6.240;2022-12-10T20:51:19;101029.34;;;0.99;92.49
64336;BME280;50672;53.362;-6.240;2022-12-10T20:53:46;101034.47;;;1.02;92.54
64336;BME280;50672;53.362;-6.240;2022-12-10T20:56:17;101033.53;;;1.04;92.46
64336;BME280;50672;53.362;-6.240;2022-12-10T20:59:04;101047.66;;;1.06;92.50
64336;BME280;50672;53.362;-6.240;2022-12-10T21:02:30;101042.31;;;1.06;92.49
64336;BME280;50672;53.362;-6.240;2022-12-10T21:05:57;101049.59;;;1.04;92.56
64336;BME280;50672;53.362;-6.240;2022-12-10T21:09:49;101050.22;;;1.07;92.47
64336;BME280;50672;53.362;-6.240;2022-12-10T21:13:17;101046.72;;;1.07;92.41
64336;BME280;50672;53.362;-6.240;2022-12-10T21:16:43;101043.19;;;1.06;92.37
64336;BME280;50672;53.362;-6.240;2022-12-10T21:20:15;101048.53;;;1.06;92.31
64336;BME280;50672;53.362;-6.240;2022-12-10T21:22:43;101055.59;;;1.07;92.32
64336;BME280;50672;53.362;-6.240;2022-12-10T21:25:12;101051.22;;;1.06;92.15
64336;BME280;50672;53.362;-6.240;2022-12-10T21:27:42;101054.75;;;1.07;92.38
64336;BME280;50672;53.362;-6.240;2022-12-10T21:30:11;101053.91;;;1.06;92.18
64336;BME280;50672;53.362;-6.240;2022-12-10T21:32:39;101055.59;;;1.07;92.43
64336;BME280;50672;53.362;-6.240;2022-12-10T21:35:26;101058.16;;;1.09;92.30
64336;BME280;50672;53.362;-6.240;2022-12-10T21:38:53;101051.97;;;1.08;92.24
64336;BME280;50672;53.362;-6.240;2022-12-10T21:41:26;101058.94;;;1.11;92.12
64336;BME280;50672;53.362;-6.240;2022-12-10T21:44:21;101058.16;;;1.09;92.28
64336;BME280;50672;53.362;-6.240;2022-12-10T21:46:48;101053.69;;;1.09;92.20
64336;BME280;50672;53.362;-6.240;2022-12-10T21:49:35;101060.66;;;1.12;92.16
64336;BME280;50672;53.362;-6.240;2022-12-10T21:52:59;101056.88;;;1.14;92.25
64336;BME280;50672;53.362;-6.240;2022-12-10T21:55:46;101063.13;;;1.15;92.09
64336;BME280;50672;53.362;-6.240;2022-12-10T21:59:12;101061.41;;;1.14;92.13
64336;BME280;50672;53.362;-6.240;2022-12-10T22:02:40;101062.47;;;1.11;92.22
64336;BME280;50672;53.362;-6.240;2022-12-10T22:06:08;101060.44;;;1.15;92.07
64336;BME280;50672;53.362;-6.240;2022-12-10T22:09:32;101053.25;;;1.15;92.00
64336;BME280;50672;53.362;-6.240;2022-12-10T22:11:59;101051.63;;;1.13;92.12
64336;BME280;50672;53.362;-6.240;2022-12-10T22:14:26;101050.69;;;1.14;92.14
64336;BME280;50672;53.362;-6.240;2022-12-10T22:16:52;101039.00;;;1.15;92.08
64336;BME280;50672;53.362;-6.240;2022-12-10T22:19:19;101046.16;;;1.14;91.96
64336;BME280;50672;53.362;-6.240;2022-12-10T22:21:46;101044.34;;;1.15;91.97
64336;BME280;50672;53.362;-6.240;2022-12-10T22:24:13;101043.41;;;1.16;91.92
64336;BME280;50672;53.362;-6.240;2022-12-10T22:26:40;101038.03;;;1.16;92.06
64336;BME280;50672;53.362;-6.240;2022-12-10T22:29:07;101058.38;;;1.18;91.93
64336;BME280;50672;53.362;-6.240;2022-12-10T22:31:33;101041.22;;;1.21;91.89
64336;BME280;50672;53.362;-6.240;2022-12-10T22:34:00;101046.47;;;1.23;92.13
64336;BME280;50672;53.362;-6.240;2022-12-10T22:36:27;101044.69;;;1.23;92.06
64336;BME280;50672;53.362;-6.240;2022-12-10T22:38:54;101039.53;;;1.20;92.04
64336;BME280;50672;53.362;-6.240;2022-12-10T22:41:41;101043.19;;;1.19;91.81
64336;BME280;50672;53.362;-6.240;2022-12-10T22:45:33;101036.09;;;1.18;91.90
64336;BME280;50672;53.362;-6.240;2022-12-10T22:49:00;101033.53;;;1.16;91.79
64336;BME280;50672;53.362;-6.240;2022-12-10T22:52:28;101048.00;;;1.14;91.77
64336;BME280;50672;53.362;-6.240;2022-12-10T22:56:01;101050.69;;;1.14;91.75
64336;BME280;50672;53.362;-6.240;2022-12-10T22:59:03;101057.97;;;1.12;91.82
64336;BME280;50672;53.362;-6.240;2022-12-10T23:01:31;101057.09;;;1.11;91.77
64336;BME280;50672;53.362;-6.240;2022-12-10T23:03:57;101054.53;;;1.10;91.85
64336;BME280;50672;53.362;-6.240;2022-12-10T23:06:24;101053.91;;;1.06;91.83
64336;BME280;50672;53.362;-6.240;2022-12-10T23:08:51;101052.41;;;1.02;91.52
64336;BME280;50672;53.362;-6.240;2022-12-10T23:11:18;101059.78;;;0.98;91.69
64336;BME280;50672;53.362;-6.240;2022-12-10T23:13:45;101050.00;;;0.97;91.82
64336;BME280;50672;53.362;-6.240;2022-12-10T23:16:16;101058.06;;;0.97;91.77
64336;BME280;50672;53.362;-6.240;2022-12-10T23:18:43;101052.59;;;0.99;91.87
64336;BME280;50672;53.362;-6.240;2022-12-10T23:21:24;101055.16;;;1.00;91.77
64336;BME280;50672;53.362;-6.240;2022-12-10T23:23:52;101047.88;;;1.02;91.75
64336;BME280;50672;53.362;-6.240;2022-12-10T23:26:20;101045.94;;;1.05;91.89
64336;BME280;50672;53.362;-6.240;2022-12-10T23:28:47;101049.38;;;1.07;91.80
64336;BME280;50672;53.362;-6.240;2022-12-10T23:31:33;101066.22;;;1.09;91.82
64336;BME280;50672;53.362;-6.240;2022-12-10T23:35:27;101069.56;;;1.12;91.87
64336;BME280;50672;53.362;-6.240;2022-12-10T23:38:54;101074.81;;;1.14;91.78
64336;BME280;50672;53.362;-6.240;2022-12-10T23:45:43;101060.75;;;1.10;91.78
64336;BME280;50672;53.362;-6.240;2022-12-10T23:48:10;101054.53;;;1.10;91.72
64336;BME280;50672;53.362;-6.240;2022-12-10T23:50:36;101075.97;;;1.10;91.55
64336;BME280;50672;53.362;-6.240;2022-12-10T23:53:23;101074.91;;;1.12;91.57
64336;BME280;50672;53.362;-6.240;2022-12-10T23:56:50;101062.34;;;1.13;91.55
64336;BME280;50672;53.362;-6.240;2022-12-10T23:59:56;101071.28;;;1.13;91.62
